KDMA/DMA METAR and TAF weather

Enter ICAO airport designator
Station Type Date Time Source
KDMA METAR 2021/08/04 19:58 UTC NOAA

KDMA 041958Z AUTO 00000KT 10SM CLR 37/13 A2993 RMK AO2 SLP085 T03710131 $


Station Type Date Time Source
KDMA Decoded METAR 2021/08/04 19:58 UTC NOAA

Davis-Monthan Air Force Base, AZ, United States (KDMA) 32-10N 110-53W
Aug 04, 2021 - 03:58 PM EDT / 2021.08.04 1958 UTC
Wind: Calm:0
Visibility: 10 mile(s):0
Sky conditions: clear
Temperature: 98.8 F (37.1 C)
Heat index: 97.0 F (36.1 C):1
Dew Point: 55.6 F (13.1 C)
Relative Humidity: 23%
Pressure (altimeter): 29.93 in. Hg (1013 hPa)
ob: KDMA 041958Z AUTO 00000KT 10SM CLR 37/13 A2993 RMK AO2 SLP085 T03710131
cycle: 20

Station Type Date Time Source
KDMA TAF 2021/08/04 15:30 UTC NOAA

TAF TAF COR KDMA 041521Z 0415/0520 VRB06KT 9999 SKC QNH2993INS
BECMG 0420/0421 32009KT 9999 FEW150 QNH2984INS
BECMG 0508/0509 17009KT 9999 SKC QNH2994INS
BECMG 0517/0518 32009KT 9999 FEW150 QNH2999INS TX41/0422Z TN24/0513Z

Example: see airport list